sensor_id;sensor_type;location;lat;lon;timestamp;temperature;humidity
38241;DHT22;24037;49.536;8.500;2023-07-08T00:00:26;20.10;99.90
38241;DHT22;24037;49.536;8.500;2023-07-08T00:02:53;19.90;99.90
38241;DHT22;24037;49.536;8.500;2023-07-08T00:05:21;19.80;99.90
38241;DHT22;24037;49.536;8.500;2023-07-08T00:07:49;19.70;99.90
38241;DHT22;24037;49.536;8.500;2023-07-08T00:10:20;19.60;99.90
38241;DHT22;24037;49.536;8.500;2023-07-08T00:12:52;19.50;99.90
38241;DHT22;24037;49.536;8.500;2023-07-08T00:15:22;19.40;99.90
38241;DHT22;24037;49.536;8.500;2023-07-08T00:17:50;19.30;99.90
38241;DHT22;24037;49.536;8.500;2023-07-08T00:20:30;19.30;99.90
38241;DHT22;24037;49.536;8.500;2023-07-08T00:22:58;19.10;99.90
38241;DHT22;24037;49.536;8.500;2023-07-08T00:25:27;19.00;99.90
38241;DHT22;24037;49.536;8.500;2023-07-08T00:27:54;19.00;99.90
38241;DHT22;24037;49.536;8.500;2023-07-08T00:30:21;18.90;99.90
38241;DHT22;24037;49.536;8.500;2023-07-08T00:32:49;18.80;99.90
38241;DHT22;24037;49.536;8.500;2023-07-08T00:35:34;18.80;99.90
38241;DHT22;24037;49.536;8.500;2023-07-08T00:40:38;18.60;99.90
38241;DHT22;24037;49.536;8.500;2023-07-08T00:43:14;18.60;99.90
38241;DHT22;24037;49.536;8.500;2023-07-08T00:45:44;18.60;99.90
38241;DHT22;24037;49.536;8.500;2023-07-08T00:48:30;18.70;99.90
38241;DHT22;24037;49.536;8.500;2023-07-08T00:50:58;18.70;99.90
38241;DHT22;24037;49.536;8.500;2023-07-08T00:53:32;18.60;99.90
38241;DHT22;24037;49.536;8.500;2023-07-08T00:56:06;18.60;99.90
38241;DHT22;24037;49.536;8.500;2023-07-08T00:58:43;18.50;99.90
38241;DHT22;24037;49.536;8.500;2023-07-08T01:01:11;18.30;99.90
38241;DHT22;24037;49.536;8.500;2023-07-08T01:03:47;18.20;99.90
38241;DHT22;24037;49.536;8.500;2023-07-08T01:06:17;18.10;99.90
38241;DHT22;24037;49.536;8.500;2023-07-08T01:08:45;17.90;99.90
38241;DHT22;24037;49.536;8.500;2023-07-08T01:11:12;17.80;99.90
38241;DHT22;24037;49.536;8.500;2023-07-08T01:13:42;17.80;99.90
38241;DHT22;24037;49.536;8.500;2023-07-08T01:16:09;17.70;99.90
38241;DHT22;24037;49.536;8.500;2023-07-08T01:18:36;17.70;99.90
38241;DHT22;24037;49.536;8.500;2023-07-08T01:21:27;17.70;99.90
38241;DHT22;24037;49.536;8.500;2023-07-08T01:23:54;17.60;99.90
38241;DHT22;24037;49.536;8.500;2023-07-08T01:26:23;17.60;99.90
38241;DHT22;24037;49.536;8.500;2023-07-08T01:28:54;17.70;99.90
38241;DHT22;24037;49.536;8.500;2023-07-08T01:31:22;17.80;99.90
38241;DHT22;24037;49.536;8.500;2023-07-08T01:33:49;18.00;99.90
38241;DHT22;24037;49.536;8.500;2023-07-08T01:36:17;17.90;99.90
38241;DHT22;24037;49.536;8.500;2023-07-08T01:38:45;17.90;99.90
38241;DHT22;24037;49.536;8.500;2023-07-08T01:41:13;17.90;99.90
38241;DHT22;24037;49.536;8.500;2023-07-08T01:43:39;17.90;99.90
38241;DHT22;24037;49.536;8.500;2023-07-08T01:46:18;17.80;99.90
38241;DHT22;24037;49.536;8.500;2023-07-08T01:48:50;17.80;99.90
38241;DHT22;24037;49.536;8.500;2023-07-08T01:51:16;17.80;99.90
38241;DHT22;24037;49.536;8.500;2023-07-08T01:53:43;17.70;99.90
38241;DHT22;24037;49.536;8.500;2023-07-08T01:56:11;17.70;99.90
38241;DHT22;24037;49.536;8.500;2023-07-08T01:58:37;17.70;99.90
38241;DHT22;24037;49.536;8.500;2023-07-08T02:01:04;17.70;99.90
38241;DHT22;24037;49.536;8.500;2023-07-08T02:03:30;17.60;99.90
38241;DHT22;24037;49.536;8.500;2023-07-08T02:05:59;17.60;99.90
38241;DHT22;24037;49.536;8.500;2023-07-08T02:08:26;17.50;99.90
38241;DHT22;24037;49.536;8.500;2023-07-08T02:10:55;17.40;99.90
38241;DHT22;24037;49.536;8.500;2023-07-08T02:13:23;17.40;99.90
38241;DHT22;24037;49.536;8.500;2023-07-08T02:15:50;17.40;99.90
38241;DHT22;24037;49.536;8.500;2023-07-08T02:18:16;17.40;99.90
38241;DHT22;24037;49.536;8.500;2023-07-08T02:20:45;17.30;99.90
38241;DHT22;24037;49.536;8.500;2023-07-08T02:23:14;17.30;99.90
38241;DHT22;24037;49.536;8.500;2023-07-08T02:25:40;17.20;99.90
38241;DHT22;24037;49.536;8.500;2023-07-08T02:28:06;17.10;99.90
38241;DHT22;24037;49.536;8.500;2023-07-08T02:30:33;17.10;99.90
38241;DHT22;24037;49.536;8.500;2023-07-08T02:32:59;17.00;1.00
38241;DHT22;24037;49.536;8.500;2023-07-08T02:35:28;17.00;1.00
38241;DHT22;24037;49.536;8.500;2023-07-08T02:37:55;17.00;1.00
38241;DHT22;24037;49.536;8.500;2023-07-08T02:40:22;17.00;1.00
38241;DHT22;24037;49.536;8.500;2023-07-08T02:42:49;16.90;1.00
38241;DHT22;24037;49.536;8.500;2023-07-08T02:45:18;16.80;1.00
38241;DHT22;24037;49.536;8.500;2023-07-08T02:47:44;16.90;1.00
38241;DHT22;24037;49.536;8.500;2023-07-08T02:50:11;16.80;1.00
38241;DHT22;24037;49.536;8.500;2023-07-08T02:52:37;16.80;1.00
38241;DHT22;24037;49.536;8.500;2023-07-08T02:55:04;16.80;1.00
38241;DHT22;24037;49.536;8.500;2023-07-08T02:57:30;16.80;1.00
38241;DHT22;24037;49.536;8.500;2023-07-08T02:59:56;16.70;1.00
38241;DHT22;24037;49.536;8.500;2023-07-08T03:02:23;16.70;1.00
38241;DHT22;24037;49.536;8.500;2023-07-08T03:04:50;16.70;1.00
38241;DHT22;24037;49.536;8.500;2023-07-08T03:07:17;16.70;1.00
38241;DHT22;24037;49.536;8.500;2023-07-08T03:09:43;16.70;1.00
38241;DHT22;24037;49.536;8.500;2023-07-08T03:12:11;16.60;1.00
38241;DHT22;24037;49.536;8.500;2023-07-08T03:14:37;16.60;1.00
38241;DHT22;24037;49.536;8.500;2023-07-08T03:17:04;16.50;1.00
38241;DHT22;24037;49.536;8.500;2023-07-08T03:19:31;16.50;1.00
38241;DHT22;24037;49.536;8.500;2023-07-08T03:21:58;16.50;1.00
38241;DHT22;24037;49.536;8.500;2023-07-08T03:24:24;16.60;1.00
38241;DHT22;24037;49.536;8.500;2023-07-08T03:26:52;16.70;1.00
38241;DHT22;24037;49.536;8.500;2023-07-08T03:29:22;16.70;1.00
38241;DHT22;24037;49.536;8.500;2023-07-08T03:31:49;16.60;1.00
38241;DHT22;24037;49.536;8.500;2023-07-08T03:34:16;16.50;1.00
38241;DHT22;24037;49.536;8.500;2023-07-08T03:36:48;16.40;1.00
38241;DHT22;24037;49.536;8.500;2023-07-08T03:39:21;16.40;1.00
38241;DHT22;24037;49.536;8.500;2023-07-08T03:41:48;16.30;1.00
38241;DHT22;24037;49.536;8.500;2023-07-08T03:44:15;16.30;1.00
38241;DHT22;24037;49.536;8.500;2023-07-08T03:46:48;16.40;1.00
38241;DHT22;24037;49.536;8.500;2023-07-08T03:49:20;16.50;1.00
38241;DHT22;24037;49.536;8.500;2023-07-08T03:51:51;16.60;1.00
38241;DHT22;24037;49.536;8.500;2023-07-08T03:54:18;16.70;1.00
38241;DHT22;24037;49.536;8.500;2023-07-08T03:56:46;16.80;1.00
38241;DHT22;24037;49.536;8.500;2023-07-08T03:59:12;16.80;1.00
38241;DHT22;24037;49.536;8.500;2023-07-08T04:01:39;16.80;1.00
38241;DHT22;24037;49.536;8.500;2023-07-08T04:04:12;16.90;1.00
38241;DHT22;24037;49.536;8.500;2023-07-08T04:06:38;16.90;1.00
38241;DHT22;24037;49.536;8.500;2023-07-08T04:09:06;16.90;1.00
38241;DHT22;24037;49.536;8.500;2023-07-08T04:11:32;16.80;1.00
38241;DHT22;24037;49.536;8.500;2023-07-08T04:13:59;16.90;1.00
38241;DHT22;24037;49.536;8.500;2023-07-08T04:16:27;16.90;1.00
38241;DHT22;24037;49.536;8.500;2023-07-08T04:18:54;17.00;1.00
38241;DHT22;24037;49.536;8.500;2023-07-08T04:21:23;17.10;1.00
38241;DHT22;24037;49.536;8.500;2023-07-08T04:23:51;17.20;1.00
38241;DHT22;24037;49.536;8.500;2023-07-08T04:26:17;17.40;1.00
38241;DHT22;24037;49.536;8.500;2023-07-08T04:28:44;17.70;1.00
38241;DHT22;24037;49.536;8.500;2023-07-08T04:31:11;17.90;1.00
38241;DHT22;24037;49.536;8.500;2023-07-08T04:33:37;18.00;1.00
38241;DHT22;24037;49.536;8.500;2023-07-08T04:36:04;18.00;1.00
38241;DHT22;24037;49.536;8.500;2023-07-08T04:38:31;18.00;1.00
38241;DHT22;24037;49.536;8.500;2023-07-08T04:40:57;18.00;1.00
38241;DHT22;24037;49.536;8.500;2023-07-08T04:43:24;18.10;1.00
38241;DHT22;24037;49.536;8.500;2023-07-08T04:45:55;18.20;1.00
38241;DHT22;24037;49.536;8.500;2023-07-08T04:48:22;18.30;1.00
38241;DHT22;24037;49.536;8.500;2023-07-08T04:50:52;18.40;99.90
38241;DHT22;24037;49.536;8.500;2023-07-08T04:53:18;18.60;99.90
38241;DHT22;24037;49.536;8.500;2023-07-08T04:55:49;18.80;99.90
38241;DHT22;24037;49.536;8.500;2023-07-08T04:58:16;19.20;99.90
38241;DHT22;24037;49.536;8.500;2023-07-08T05:00:43;19.60;99.90
38241;DHT22;24037;49.536;8.500;2023-07-08T05:03:09;19.80;99.90
38241;DHT22;24037;49.536;8.500;2023-07-08T05:05:35;20.00;99.90
38241;DHT22;24037;49.536;8.500;2023-07-08T05:08:02;20.50;99.90
38241;DHT22;24037;49.536;8.500;2023-07-08T05:10:28;20.80;99.90
38241;DHT22;24037;49.536;8.500;2023-07-08T05:12:54;21.60;99.90
38241;DHT22;24037;49.536;8.500;2023-07-08T05:15:20;21.90;99.90
38241;DHT22;24037;49.536;8.500;2023-07-08T05:17:50;22.20;99.90
38241;DHT22;24037;49.536;8.500;2023-07-08T05:20:16;22.70;99.90
38241;DHT22;24037;49.536;8.500;2023-07-08T05:22:44;22.40;99.90
38241;DHT22;24037;49.536;8.500;2023-07-08T05:25:11;22.00;99.90
38241;DHT22;24037;49.536;8.500;2023-07-08T05:27:38;21.80;99.90
38241;DHT22;24037;49.536;8.500;2023-07-08T05:30:06;21.30;99.90
38241;DHT22;24037;49.536;8.500;2023-07-08T05:32:33;21.10;99.90
38241;DHT22;24037;49.536;8.500;2023-07-08T05:34:59;21.10;99.90
38241;DHT22;24037;49.536;8.500;2023-07-08T05:37:25;21.30;99.90
38241;DHT22;24037;49.536;8.500;2023-07-08T05:39:54;21.50;99.90
38241;DHT22;24037;49.536;8.500;2023-07-08T05:42:20;21.80;99.90
38241;DHT22;24037;49.536;8.500;2023-07-08T05:44:47;22.20;99.90
38241;DHT22;24037;49.536;8.500;2023-07-08T05:47:14;23.50;99.90
38241;DHT22;24037;49.536;8.500;2023-07-08T05:49:41;23.50;99.90
38241;DHT22;24037;49.536;8.500;2023-07-08T05:52:07;24.00;99.90
38241;DHT22;24037;49.536;8.500;2023-07-08T05:54:38;24.50;99.90
38241;DHT22;24037;49.536;8.500;2023-07-08T05:57:05;24.50;99.90
38241;DHT22;24037;49.536;8.500;2023-07-08T05:59:32;24.30;99.90
38241;DHT22;24037;49.536;8.500;2023-07-08T06:01:58;25.60;99.90
38241;DHT22;24037;49.536;8.500;2023-07-08T06:04:26;26.70;99.90
38241;DHT22;24037;49.536;8.500;2023-07-08T06:06:52;26.90;98.30
38241;DHT22;24037;49.536;8.500;2023-07-08T06:09:18;26.30;98.30
38241;DHT22;24037;49.536;8.500;2023-07-08T06:11:44;25.40;99.90
38241;DHT22;24037;49.536;8.500;2023-07-08T06:14:14;24.60;99.90
38241;DHT22;24037;49.536;8.500;2023-07-08T06:16:40;23.90;99.90
38241;DHT22;24037;49.536;8.500;2023-07-08T06:19:06;23.40;99.90
38241;DHT22;24037;49.536;8.500;2023-07-08T06:21:32;23.10;99.90
38241;DHT22;24037;49.536;8.500;2023-07-08T06:23:59;23.00;99.90
38241;DHT22;24037;49.536;8.500;2023-07-08T06:26:25;23.00;99.90
38241;DHT22;24037;49.536;8.500;2023-07-08T06:28:51;22.90;99.90
38241;DHT22;24037;49.536;8.500;2023-07-08T06:31:17;23.20;99.90
38241;DHT22;24037;49.536;8.500;2023-07-08T06:33:43;24.60;99.90
38241;DHT22;24037;49.536;8.500;2023-07-08T06:36:09;25.20;99.90
38241;DHT22;24037;49.536;8.500;2023-07-08T06:38:35;26.10;96.50
38241;DHT22;24037;49.536;8.500;2023-07-08T06:41:02;25.70;96.40
38241;DHT22;24037;49.536;8.500;2023-07-08T06:43:28;25.40;96.50
38241;DHT22;24037;49.536;8.500;2023-07-08T06:45:59;25.10;98.40
38241;DHT22;24037;49.536;8.500;2023-07-08T06:48:25;24.90;98.20
38241;DHT22;24037;49.536;8.500;2023-07-08T06:50:51;24.60;99.40
38241;DHT22;24037;49.536;8.500;2023-07-08T06:53:18;24.50;97.50
38241;DHT22;24037;49.536;8.500;2023-07-08T06:55:45;24.60;99.70
38241;DHT22;24037;49.536;8.500;2023-07-08T06:58:11;25.40;62.10
38241;DHT22;24037;49.536;8.500;2023-07-08T07:00:41;27.10;33.60
38241;DHT22;24037;49.536;8.500;2023-07-08T07:03:07;28.00;1.10
38241;DHT22;24037;49.536;8.500;2023-07-08T07:05:34;27.80;6.70
38241;DHT22;24037;49.536;8.500;2023-07-08T07:08:00;28.20;10.70
38241;DHT22;24037;49.536;8.500;2023-07-08T07:10:26;28.90;1.00
38241;DHT22;24037;49.536;8.500;2023-07-08T07:12:52;28.40;1.00
38241;DHT22;24037;49.536;8.500;2023-07-08T07:15:18;27.50;1.00
38241;DHT22;24037;49.536;8.500;2023-07-08T07:17:44;26.50;6.60
38241;DHT22;24037;49.536;8.500;2023-07-08T07:20:11;26.10;21.90
38241;DHT22;24037;49.536;8.500;2023-07-08T07:22:37;26.30;21.50
38241;DHT22;24037;49.536;8.500;2023-07-08T07:25:04;27.00;19.70
38241;DHT22;24037;49.536;8.500;2023-07-08T07:27:30;28.00;5.30
38241;DHT22;24037;49.536;8.500;2023-07-08T07:29:56;29.60;1.00
38241;DHT22;24037;49.536;8.500;2023-07-08T07:32:25;29.60;1.00
38241;DHT22;24037;49.536;8.500;2023-07-08T07:34:52;29.20;1.00
38241;DHT22;24037;49.536;8.500;2023-07-08T07:37:20;28.70;1.00
38241;DHT22;24037;49.536;8.500;2023-07-08T07:39:46;30.00;1.00
38241;DHT22;24037;49.536;8.500;2023-07-08T07:42:14;30.00;1.00
38241;DHT22;24037;49.536;8.500;2023-07-08T07:44:41;29.50;1.00
38241;DHT22;24037;49.536;8.500;2023-07-08T07:47:08;30.30;1.00
38241;DHT22;24037;49.536;8.500;2023-07-08T07:49:35;31.20;1.00
38241;DHT22;24037;49.536;8.500;2023-07-08T07:52:02;31.50;1.00
38241;DHT22;24037;49.536;8.500;2023-07-08T07:54:28;31.90;1.00
38241;DHT22;24037;49.536;8.500;2023-07-08T07:56:54;31.50;1.00
38241;DHT22;24037;49.536;8.500;2023-07-08T07:59:21;30.90;1.00
38241;DHT22;24037;49.536;8.500;2023-07-08T08:01:48;29.80;3.20
38241;DHT22;24037;49.536;8.500;2023-07-08T08:04:14;29.20;21.00
38241;DHT22;24037;49.536;8.500;2023-07-08T08:06:40;28.90;31.60
38241;DHT22;24037;49.536;8.500;2023-07-08T08:09:07;27.80;55.00
38241;DHT22;24037;49.536;8.500;2023-07-08T08:11:33;27.20;72.80
38241;DHT22;24037;49.536;8.500;2023-07-08T08:14:00;26.60;90.90
38241;DHT22;24037;49.536;8.500;2023-07-08T08:16:26;26.50;94.40
38241;DHT22;24037;49.536;8.500;2023-07-08T08:18:53;27.30;96.60
38241;DHT22;24037;49.536;8.500;2023-07-08T08:21:19;29.10;59.90
38241;DHT22;24037;49.536;8.500;2023-07-08T08:23:45;30.40;32.90
38241;DHT22;24037;49.536;8.500;2023-07-08T08:26:11;30.20;32.50
38241;DHT22;24037;49.536;8.500;2023-07-08T08:28:37;30.10;42.00
38241;DHT22;24037;49.536;8.500;2023-07-08T08:31:04;30.20;37.30
38241;DHT22;24037;49.536;8.500;2023-07-08T08:33:30;29.80;49.30
38241;DHT22;24037;49.536;8.500;2023-07-08T08:35:57;30.30;46.50
38241;DHT22;24037;49.536;8.500;2023-07-08T08:38:23;30.30;37.20
38241;DHT22;24037;49.536;8.500;2023-07-08T08:40:49;29.40;65.10
38241;DHT22;24037;49.536;8.500;2023-07-08T08:43:22;30.00;48.10
38241;DHT22;24037;49.536;8.500;2023-07-08T08:46:05;29.50;53.20
38241;DHT22;24037;49.536;8.500;2023-07-08T08:48:38;29.30;58.70
38241;DHT22;24037;49.536;8.500;2023-07-08T08:51:13;29.20;77.30
38241;DHT22;24037;49.536;8.500;2023-07-08T08:53:40;30.10;48.60
38241;DHT22;24037;49.536;8.500;2023-07-08T08:56:21;29.20;64.80
38241;DHT22;24037;49.536;8.500;2023-07-08T08:59:24;30.30;59.40
38241;DHT22;24037;49.536;8.500;2023-07-08T09:01:49;31.40;36.00
38241;DHT22;24037;49.536;8.500;2023-07-08T09:04:21;31.90;23.70
38241;DHT22;24037;49.536;8.500;2023-07-08T09:06:48;31.50;22.10
38241;DHT22;24037;49.536;8.500;2023-07-08T09:09:30;31.70;18.00
38241;DHT22;24037;49.536;8.500;2023-07-08T09:12:10;31.10;20.20
38241;DHT22;24037;49.536;8.500;2023-07-08T09:14:37;30.90;32.90
38241;DHT22;24037;49.536;8.500;2023-07-08T09:17:31;31.10;21.50
38241;DHT22;24037;49.536;8.500;2023-07-08T09:20:23;31.10;25.00
38241;DHT22;24037;49.536;8.500;2023-07-08T09:28:39;34.00;1.00
38241;DHT22;24037;49.536;8.500;2023-07-08T09:31:07;34.40;1.00
38241;DHT22;24037;49.536;8.500;2023-07-08T09:33:37;33.70;1.00
38241;DHT22;24037;49.536;8.500;2023-07-08T09:36:16;32.90;1.00
38241;DHT22;24037;49.536;8.500;2023-07-08T09:38:50;31.90;1.00
38241;DHT22;24037;49.536;8.500;2023-07-08T09:41:34;32.90;1.00
38241;DHT22;24037;49.536;8.500;2023-07-08T09:46:40;33.50;1.00
38241;DHT22;24037;49.536;8.500;2023-07-08T09:49:33;33.30;1.00
38241;DHT22;24037;49.536;8.500;2023-07-08T09:52:01;32.80;1.00
38241;DHT22;24037;49.536;8.500;2023-07-08T09:54:27;32.90;1.00
38241;DHT22;24037;49.536;8.500;2023-07-08T09:57:00;33.30;1.00
38241;DHT22;24037;49.536;8.500;2023-07-08T09:59:31;34.50;1.00
38241;DHT22;24037;49.536;8.500;2023-07-08T10:02:25;35.10;1.00
38241;DHT22;24037;49.536;8.500;2023-07-08T10:04:56;32.90;1.00
38241;DHT22;24037;49.536;8.500;2023-07-08T10:07:22;31.30;11.40
38241;DHT22;24037;49.536;8.500;2023-07-08T10:09:51;30.50;17.50
38241;DHT22;24037;49.536;8.500;2023-07-08T10:12:20;30.20;27.70
38241;DHT22;24037;49.536;8.500;2023-07-08T10:14:54;31.00;24.80
38241;DHT22;24037;49.536;8.500;2023-07-08T10:17:22;31.10;7.90
38241;DHT22;24037;49.536;8.500;2023-07-08T10:19:48;31.00;5.30
38241;DHT22;24037;49.536;8.500;2023-07-08T10:25:09;30.90;13.90
38241;DHT22;24037;49.536;8.500;2023-07-08T10:28:06;31.50;7.90
38241;DHT22;24037;49.536;8.500;2023-07-08T10:36:19;31.20;13.40
38241;DHT22;24037;49.536;8.500;2023-07-08T10:39:11;31.20;23.10
38241;DHT22;24037;49.536;8.500;2023-07-08T10:41:58;31.20;13.30
38241;DHT22;24037;49.536;8.500;2023-07-08T10:58:20;31.10;22.70
38241;DHT22;24037;49.536;8.500;2023-07-08T11:04:11;31.00;29.60
38241;DHT22;24037;49.536;8.500;2023-07-08T11:07:22;30.90;26.20
38241;DHT22;24037;49.536;8.500;2023-07-08T11:09:48;30.80;23.90
38241;DHT22;24037;49.536;8.500;2023-07-08T11:12:41;30.80;35.20
38241;DHT22;24037;49.536;8.500;2023-07-08T11:15:15;31.00;20.40
38241;DHT22;24037;49.536;8.500;2023-07-08T11:23:37;31.10;20.70
38241;DHT22;24037;49.536;8.500;2023-07-08T11:28:33;31.20;16.60
38241;DHT22;24037;49.536;8.500;2023-07-08T11:31:01;31.20;13.70
38241;DHT22;24037;49.536;8.500;2023-07-08T11:33:28;31.30;12.80
38241;DHT22;24037;49.536;8.500;2023-07-08T11:35:57;31.40;12.50
38241;DHT22;24037;49.536;8.500;2023-07-08T11:38:26;31.60;6.10
38241;DHT22;24037;49.536;8.500;2023-07-08T11:41:41;31.40;9.40
38241;DHT22;24037;49.536;8.500;2023-07-08T11:43:59;31.50;5.50
38241;DHT22;24037;49.536;8.500;2023-07-08T11:46:32;31.20;4.60
38241;DHT22;24037;49.536;8.500;2023-07-08T11:49:12;30.90;8.40
38241;DHT22;24037;49.536;8.500;2023-07-08T11:51:42;30.90;21.10
38241;DHT22;24037;49.536;8.500;2023-07-08T11:54:35;31.40;17.20
38241;DHT22;24037;49.536;8.500;2023-07-08T11:57:04;31.90;7.10
38241;DHT22;24037;49.536;8.500;2023-07-08T11:59:39;31.80;3.20
38241;DHT22;24037;49.536;8.500;2023-07-08T12:05:19;32.00;1.10
38241;DHT22;24037;49.536;8.500;2023-07-08T12:07:47;31.40;1.00
38241;DHT22;24037;49.536;8.500;2023-07-08T12:10:23;31.50;1.00
38241;DHT22;24037;49.536;8.500;2023-07-08T12:12:52;31.30;1.30
38241;DHT22;24037;49.536;8.500;2023-07-08T12:15:31;31.60;1.10
38241;DHT22;24037;49.536;8.500;2023-07-08T12:18:02;31.80;1.00
38241;DHT22;24037;49.536;8.500;2023-07-08T12:20:33;31.70;1.00
38241;DHT22;24037;49.536;8.500;2023-07-08T12:23:00;31.60;1.00
38241;DHT22;24037;49.536;8.500;2023-07-08T12:25:35;31.80;1.00
38241;DHT22;24037;49.536;8.500;2023-07-08T12:28:02;31.20;1.00
38241;DHT22;24037;49.536;8.500;2023-07-08T12:30:29;31.30;1.00
38241;DHT22;24037;49.536;8.500;2023-07-08T12:32:57;31.30;1.00
38241;DHT22;24037;49.536;8.500;2023-07-08T12:35:30;31.60;1.00
38241;DHT22;24037;49.536;8.500;2023-07-08T12:38:02;32.20;1.00
38241;DHT22;24037;49.536;8.500;2023-07-08T12:40:30;31.90;1.00
38241;DHT22;24037;49.536;8.500;2023-07-08T12:42:57;31.80;1.00
38241;DHT22;24037;49.536;8.500;2023-07-08T12:45:27;32.00;1.00
38241;DHT22;24037;49.536;8.500;2023-07-08T12:47:54;32.00;1.00
38241;DHT22;24037;49.536;8.500;2023-07-08T12:50:20;32.40;1.00
38241;DHT22;24037;49.536;8.500;2023-07-08T12:55:16;32.10;1.00
38241;DHT22;24037;49.536;8.500;2023-07-08T12:57:45;32.10;1.00
38241;DHT22;24037;49.536;8.500;2023-07-08T13:00:16;32.40;1.00
38241;DHT22;24037;49.536;8.500;2023-07-08T13:02:45;33.00;1.00
38241;DHT22;24037;49.536;8.500;2023-07-08T13:05:13;33.00;1.00
38241;DHT22;24037;49.536;8.500;2023-07-08T13:07:41;32.70;1.00
38241;DHT22;24037;49.536;8.500;2023-07-08T13:10:18;32.80;1.00
38241;DHT22;24037;49.536;8.500;2023-07-08T13:12:45;33.00;1.00
38241;DHT22;24037;49.536;8.500;2023-07-08T13:15:19;33.00;1.00
38241;DHT22;24037;49.536;8.500;2023-07-08T13:17:47;33.20;1.00
38241;DHT22;24037;49.536;8.500;2023-07-08T13:20:15;33.20;1.00
38241;DHT22;24037;49.536;8.500;2023-07-08T13:22:42;33.30;1.00
38241;DHT22;24037;49.536;8.500;2023-07-08T13:25:15;33.20;1.00
38241;DHT22;24037;49.536;8.500;2023-07-08T13:27:42;32.90;1.00
38241;DHT22;24037;49.536;8.500;2023-07-08T13:30:21;32.20;1.00
38241;DHT22;24037;49.536;8.500;2023-07-08T13:32:54;32.80;1.00
38241;DHT22;24037;49.536;8.500;2023-07-08T13:35:38;33.00;1.00
38241;DHT22;24037;49.536;8.500;2023-07-08T13:38:05;33.00;1.00
38241;DHT22;24037;49.536;8.500;2023-07-08T13:40:44;33.30;1.00
38241;DHT22;24037;49.536;8.500;2023-07-08T13:43:11;33.20;1.00
38241;DHT22;24037;49.536;8.500;2023-07-08T13:45:37;33.30;1.00
38241;DHT22;24037;49.536;8.500;2023-07-08T13:48:18;33.40;1.00
38241;DHT22;24037;49.536;8.500;2023-07-08T13:50:50;33.70;1.00
38241;DHT22;24037;49.536;8.500;2023-07-08T13:53:24;33.80;1.00
38241;DHT22;24037;49.536;8.500;2023-07-08T13:55:59;33.30;1.00
38241;DHT22;24037;49.536;8.500;2023-07-08T13:58:28;33.20;1.00
38241;DHT22;24037;49.536;8.500;2023-07-08T14:00:56;33.60;1.00
38241;DHT22;24037;49.536;8.500;2023-07-08T14:03:22;33.90;1.00
38241;DHT22;24037;49.536;8.500;2023-07-08T14:05:49;34.00;1.00
38241;DHT22;24037;49.536;8.500;2023-07-08T14:08:16;34.10;1.00
38241;DHT22;24037;49.536;8.500;2023-07-08T14:10:44;33.50;1.00
38241;DHT22;24037;49.536;8.500;2023-07-08T14:13:10;32.80;1.00
38241;DHT22;24037;49.536;8.500;2023-07-08T14:15:38;32.80;1.00
38241;DHT22;24037;49.536;8.500;2023-07-08T14:18:04;33.20;1.00
38241;DHT22;24037;49.536;8.500;2023-07-08T14:20:31;33.50;1.00
38241;DHT22;24037;49.536;8.500;2023-07-08T14:22:58;33.40;1.00
38241;DHT22;24037;49.536;8.500;2023-07-08T14:25:24;33.20;1.00
38241;DHT22;24037;49.536;8.500;2023-07-08T14:27:51;33.60;1.00
38241;DHT22;24037;49.536;8.500;2023-07-08T14:30:17;33.80;1.00
38241;DHT22;24037;49.536;8.500;2023-07-08T14:32:44;33.70;1.00
38241;DHT22;24037;49.536;8.500;2023-07-08T14:35:19;33.60;1.00
38241;DHT22;24037;49.536;8.500;2023-07-08T14:37:47;33.10;1.00
38241;DHT22;24037;49.536;8.500;2023-07-08T14:40:31;33.00;1.00
38241;DHT22;24037;49.536;8.500;2023-07-08T14:43:03;33.30;1.00
38241;DHT22;24037;49.536;8.500;2023-07-08T14:45:52;33.20;1.00
38241;DHT22;24037;49.536;8.500;2023-07-08T14:48:19;33.40;1.00
38241;DHT22;24037;49.536;8.500;2023-07-08T14:50:45;34.00;1.00
38241;DHT22;24037;49.536;8.500;2023-07-08T14:53:14;34.20;1.00
38241;DHT22;24037;49.536;8.500;2023-07-08T14:55:40;34.30;1.00
38241;DHT22;24037;49.536;8.500;2023-07-08T14:58:15;34.40;1.00
38241;DHT22;24037;49.536;8.500;2023-07-08T15:00:43;34.40;1.00
38241;DHT22;24037;49.536;8.500;2023-07-08T15:03:10;34.20;1.00
38241;DHT22;24037;49.536;8.500;2023-07-08T15:05:36;33.80;1.00
38241;DHT22;24037;49.536;8.500;2023-07-08T15:08:02;33.30;1.00
38241;DHT22;24037;49.536;8.500;2023-07-08T15:10:32;33.30;1.00
38241;DHT22;24037;49.536;8.500;2023-07-08T15:13:00;33.30;1.00
38241;DHT22;24037;49.536;8.500;2023-07-08T15:15:29;33.40;1.00
38241;DHT22;24037;49.536;8.500;2023-07-08T15:17:57;33.70;1.00
38241;DHT22;24037;49.536;8.500;2023-07-08T15:20:24;34.00;1.00
38241;DHT22;24037;49.536;8.500;2023-07-08T15:22:51;34.00;1.00
38241;DHT22;24037;49.536;8.500;2023-07-08T15:25:18;34.10;1.00
38241;DHT22;24037;49.536;8.500;2023-07-08T15:27:51;34.00;1.00
38241;DHT22;24037;49.536;8.500;2023-07-08T15:30:20;34.00;1.00
38241;DHT22;24037;49.536;8.500;2023-07-08T15:32:47;34.00;1.00
38241;DHT22;24037;49.536;8.500;2023-07-08T15:35:15;34.10;1.00
38241;DHT22;24037;49.536;8.500;2023-07-08T15:37:43;33.50;1.00
38241;DHT22;24037;49.536;8.500;2023-07-08T15:40:13;33.40;1.00
38241;DHT22;24037;49.536;8.500;2023-07-08T15:42:40;33.60;1.00
38241;DHT22;24037;49.536;8.500;2023-07-08T15:45:29;33.80;1.00
38241;DHT22;24037;49.536;8.500;2023-07-08T15:47:56;34.00;1.00
38241;DHT22;24037;49.536;8.500;2023-07-08T15:50:25;33.90;1.00
38241;DHT22;24037;49.536;8.500;2023-07-08T15:52:52;33.70;1.00
38241;DHT22;24037;49.536;8.500;2023-07-08T15:55:30;33.80;1.00
38241;DHT22;24037;49.536;8.500;2023-07-08T15:58:01;33.70;1.00
38241;DHT22;24037;49.536;8.500;2023-07-08T16:00:30;33.80;1.00
38241;DHT22;24037;49.536;8.500;2023-07-08T16:03:00;34.10;1.00
38241;DHT22;24037;49.536;8.500;2023-07-08T16:05:27;34.00;1.00
38241;DHT22;24037;49.536;8.500;2023-07-08T16:07:54;33.80;1.00
38241;DHT22;24037;49.536;8.500;2023-07-08T16:10:21;33.50;1.00
38241;DHT22;24037;49.536;8.500;2023-07-08T16:12:51;33.50;1.00
38241;DHT22;24037;49.536;8.500;2023-07-08T16:15:30;33.60;1.00
38241;DHT22;24037;49.536;8.500;2023-07-08T16:17:58;33.60;1.00
38241;DHT22;24037;49.536;8.500;2023-07-08T16:20:26;33.90;1.00
38241;DHT22;24037;49.536;8.500;2023-07-08T16:22:53;34.20;1.00
38241;DHT22;24037;49.536;8.500;2023-07-08T16:25:27;34.10;1.00
38241;DHT22;24037;49.536;8.500;2023-07-08T16:27:54;34.10;1.00
38241;DHT22;24037;49.536;8.500;2023-07-08T16:30:21;34.00;1.00
38241;DHT22;24037;49.536;8.500;2023-07-08T16:32:48;33.90;1.00
38241;DHT22;24037;49.536;8.500;2023-07-08T16:35:17;33.90;1.00
38241;DHT22;24037;49.536;8.500;2023-07-08T16:37:47;34.10;1.00
38241;DHT22;24037;49.536;8.500;2023-07-08T16:40:17;34.30;1.00
38241;DHT22;24037;49.536;8.500;2023-07-08T16:42:46;34.50;1.00
38241;DHT22;24037;49.536;8.500;2023-07-08T16:45:15;34.30;1.00